首页
METAR-TAF:

METAR-TAF

机场 :

達拉曼, 土耳其

纬度: 36-42N, 经度: 028-47E, 海拔: 7米

当前天气观测

该预报发布于41分钟前的08:50 UTC
风速12节,风向
温度 21°C
湿度 23%
气压 1014 hPa
能见度10公里或以上
1500米以下无云,无积雨云

METAR: LTBS 140850Z 36012KT CAVOK 21/M01 Q1014 NOSIG RMK RWY19 35018KT

时间: 12:31 (09:31 UTC)

预报

该预报发布于4小时和51分钟前的04:40 UTC
预报有效从14日的 06点(UTC)到 15日的 06点(UTC)
风速17节,风向
能见度10公里或以上
1500米以下无云,无积雨云
成为
从 14日的 18点(UTC)到 14日的 20点(UTC)
风速7节,风向北转东北

TAF: LTBS 140440Z 1406/1506 35017KT CAVOK BECMG 1418/1420 02007KT

超过4000个机场的气象观测和天气预报(METAR&TAF报告)。

可查询的气象台以黄色和红色小点在地图上表示。

将鼠标移到小点上方,可查看气象台名称。

然后点击查看天气观测和预报。

如需切换地图:点击带黑十字的绿色按钮放大地图;点击带横线的绿色按钮缩小地图;或者点击绿色箭头查看邻近地区的地图。


METAR-TAF: